BAR weather

Bareri Airport
Bareri, Papua, Indonesia

Public forecast

Using degrees Celsius for public forecast. Weather courtesy of forecast.io.

METAR (pilot weather report)

Report is more than 6 hours old.

Closest report is Moses Kilangin Airport, 107.2 nm (198.6 km) SSW. Retrieved 2016/09/06 07:30 UTC (3 years ago):

WABP 060730Z 1 ?ZE)2U?0TCU 31/23 Q1010 NOSHG

TAF (pilot weather forecast)

Forecast is more than 12 hours old.

Closest forecast is Moses Kilangin Airport, 107.2 nm (198.6 km) SSW. Retrieved 2013/03/11 12:00 UTC (6 years ago):

TAF WABP 111100Z 1112/1212 00000KT 5000 HZ SCT012 TEMPO 1112/1118 4000 RA FEW010CB BECMG 1200/1202 24008KT 8000 TEMPO 1200/1202 AND 1208/1212 5000 RA FEW010CB